Historyczne dane pomiarowe

Dodano dane terminowe – wersja testowa.

Dane z okresu 1951-2019

Wersja bazy: 1.34 [2019-03-16, lista zmian], aktualizacja planowana na 2019-04-15

Dane meteo z obszaru Polski uzyskane na podstawie danych udostępnionych przez Instytut Meteorologii i Gospodarki Wodnej – Państwowy Instytut Badawczy.

 

Wybierz Datę:    

       

TemperaturaWilgotnośćWiatrCiśnienieOpadyŚniegCzas trwania zjawisk
 Stacja t tx tn tng RH VA  wxwx mslp ppp RRR   cm mm wxwxwxwxwxwxwx
1993-06-13 2.4 5.5 0.3- 89.0 6.4 6.8 4.9 0.5 0.0- 794.0 1.0 0.0 1.0- 0.0 2.2 0.3-- 12.0---
1993-06-14 2.3 5.1 0.6- 97.8 7.1 7.1 5.1 0.0 0.0- 797.2 7.6 7.6 0.0- 0.0 1.5 5.9-- 17.3---
1993-06-15 2.6 4.7 1.7- 95.8 7.1 7.1 5.4 0.0 0.0- 799.0 6.4 2.8 3.6- 0.0 0.5 5.7-- 12.7---
1993-06-16 0.1 3.4 -2.8- 92.3 5.7 6.3 3.8 0.0 0.0- 801.4 0.0 0.0 0.0 1 0.0 4.6- 0.9- 7.9---
1993-06-17 2.2 4.9 0.5- 95.5 6.9 7.5 6.4 5.2 0.0- 798.4 11.3 6.4 4.9- 0.0 0.0 11.7-- 17.5---
1993-06-18 1.4 3.9 -0.3- 98.6 6.7 7.9 5.6 1.5 0.0- 802.1 1.3 1.1 0.2- 0.0 0.8 2.5-- 14.8---
1993-06-19 7.1 11.6 2.4- 80.9 8.1 5.9 6.5 1.5 0.0- 804.1 0.0 0.0 0.0- 0.0 5.9--- 3.2---
1993-06-20 9.3 13.8 6.6- 81.6 9.4 5.6 7.1 2.7 0.0- 802.2 5.6 4.3 1.3- 0.0 7.5 4.6-- 5.8-- 4.1
1993-06-21 4.9 9.2 0.8- 80.5 6.9 6.1 3.6 0.0 0.0- 801.6 2.0 0.0 2.0- 0.0 7.0-------
1993-06-22 7.1 9.9 5.0- 97.1 9.8 7.4 4.9 0.0 0.0- 800.3 4.0 0.0 4.0- 0.0 6.4 1.8-- 20.8---
1993-06-23 8.2 9.6 6.8- 98.5 10.8 6.9 10.3 10.8 4.3- 796.5 5.4 2.5 2.9- 0.0 0.0 2.6-- 17.8---
1993-06-24 4.0 8.8 0.5- 99.8 8.2 8.0 5.9 0.0 0.0- 797.3 4.7 4.5 0.2- 0.0 0.0 10.7-- 23.5---
1993-06-25 -1.5 0.7 -2.5- 96.5 5.3 7.4 7.0 5.8 0.0- 799.9 2.0 0.1 1.9- 0.0 1.8- 2.6- 12.8---
1993-06-26 -2.6 -1.0 -3.8- 98.0 5.0 8.0 5.8 0.0 0.0- 796.9 6.3 3.0 3.3 1 0.0 0.0- 6.2- 21.6---
1993-06-27 0.2 2.6 -2.6- 95.5 5.9 7.3 3.5 0.0 0.0- 796.6 3.1 1.2 1.9 3 0.0 1.9- 2.5- 11.5---
1993-06-28 0.4 2.3 -1.2- 98.5 6.2 7.8 2.9 0.0 0.0- 795.4 20.6 8.7 11.9- 0.0 0.1 0.7 12.6 0.7 21.7---
1993-06-29 0.9 2.4 -1.5- 99.9 6.5 8.0 4.4 0.0 0.0- 799.1 5.6 5.6 0.0 15 1.2- 3.0 1.0- 23.5---
1993-06-30 1.8 5.9 0.3- 94.3 6.5 5.6 3.8 0.0 0.0- 797.8 9.2 2.4 6.8 8 1.1 2.1 1.7 2.3- 9.6---
1993-07-01 1.2 4.3 -2.1- 99.3 6.7 6.8 5.8 0.5 0.0- 799.8 0.0 0.0 0.0 4 0.0 0.8- 3.3- 18.7---
1993-07-02 7.0 12.4 2.1- 79.9 8.1 2.8 3.4 0.0 0.0- 803.4 0.0 0.0 0.0- 0.0 10.0----- 2.0-
1993-07-03 10.7 16.2 6.3- 72.3 9.1 2.6 4.3 0.0 0.0- 805.8 0.1 0.0 0.1- 0.0 12.9----- 5.0-
1993-07-04 10.0 12.9 7.6- 87.6 10.7 7.4 6.1 0.5 0.0- 808.5 0.0 0.0 0.0- 0.0 2.9 1.3-- 8.3---
1993-07-05 10.0 13.7 6.6- 83.9 10.2 6.1 3.9 4.5 0.0- 806.3 0.2 0.0 0.2- 0.0 3.4--- 1.9---
1993-07-06 4.6 10.6 -1.3- 98.4 8.7 7.8 7.1 4.5 0.0- 798.7 2.5 2.5 0.0- 0.0 0.6 5.1-- 19.2---
1993-07-07 -0.1 1.0 -1.5- 97.6 5.9 7.8 7.0 8.5 0.0- 798.5 3.9 0.0 3.9- 0.0 0.7- 0.8 0.7 15.9---
1993-07-08 -0.4 2.8 -2.5- 97.3 5.8 5.8 6.4 6.0 0.0- 799.4 0.5 0.5 0.0 2 0.0 4.1- 3.4- 14.3---
1993-07-09 6.0 11.5 0.0- 69.9 6.6 1.6 5.5 5.0 0.0- 802.3 0.0 0.0 0.0- 0.0 14.5----- 3.0-
1993-07-10 8.5 12.9 4.9- 73.0 7.9 3.0 10.1 14.7 0.0- 800.1 0.0 0.0 0.0- 0.0 14.0-------
1993-07-11 9.3 12.9 8.0- 86.0 10.0 6.1 11.9 17.3 2.1- 794.7 2.5 0.4 2.1- 0.0 7.9 1.5-- 4.7---
1993-07-12 1.3 9.1 -0.6- 98.5 6.6 7.8 3.3 0.0 0.0- 796.3 6.3 0.3 6.0- 0.0 1.1 4.5 0.9- 20.9---
225.7 ms

 

Źródłem pochodzenia danych jest Instytut Meteorologii i Gospodarki Wodnej – Państwowy Instytut Badawczy. Dane Instytutu Meteorologii i Gospodarki Wodnej – Państwowego Instytutu Badawczego zostały przetworzone.

Dane źródłowe można odnaleźć na stronie https://dane.imgw.pl